Terminal Aerodrome Forecast
Issued by NWS

Home | Current Version | Previous Version | Graphics & Text | Print | Product List | Glossary On
Versions: 1 2 3 4 5 6 7 8 9 10 11 12 13 14 15 16 17 18 19 20
000
FTUS43 KMPX 280520
TAFRWF
TAF
KRWF 280520Z 2806/2906 20004KT 6SM BR SCT020
      TEMPO 2810/2811 2SM BR VV001
     FM281100 33007KT P6SM SCT050
     FM281500 32014G20KT P6SM BKN050
     FM290100 33008KT P6SM SCT050=

USA.gov is the U.S. government's official web portal to all federal, state and local government web resources and services.